ADDS TAF Board (Experimental) INFO

IDs: Format: Expanded Condensed

Updated at: 1434 UTC 25 Oct 2014

KFLL - Ft Lauderdale-Hollyw, FL, US

Issued at 1128 UTC 25 Oct 2014
Time1353Z25/15Z25/16Z25/17Z25/18Z25/19Z25/20Z25/21Z25/22Z25/23Z26/00Z26/01Z26/02Z26/03Z
TypeOBSPRVLPRVLPRVLPRVLPRVLPRVLPRVLPRVLPRVLPRVLPRVLPRVLPRVL
VIS10>6>6>6>6>6>6>6>6>6>6>6>6>6
CIG----------------------------
CoverFEWFEWFEWFEWFEWFEWFEWFEWFEWFEWFEWFEWSKCSKC
FltCat--VFRVFRVFRVFRVFRVFRVFRVFRVFRVFRVFRVFRVFR
WX----------------------------
WDir35010101010101010101010101010
WSpd9101010101010101010101088
WGst----------------------------
R10/28
XWnd9101010101010101010101088
HWnd-22222222222211
Raw TAF
KFLL 251128Z 2512/2612 33010KT P6SM FEW040
  FM251400 01010KT P6SM FEW035
  FM260200 01008KT P6SM SKC
  FM260600 35006KT P6SM FEW250


Raw METAR
KFLL 251353Z 35009KT 10SM FEW035 26/17 A2992 RMK AO2 SLP132 T02560167

TAF Board Legend

Hazard VFR MVFR IFR LIFR
Visibility (sm) >5 3≤X≤5 1≤X<3 <1
Ceiling (100 ft) >30 10≤X≤30 5≤X<10 <5
Wind Speed (kt) <10 10≤X<20 20≤X<30 ≥30
Wind Gust (kt) <15 15≤X<25 25≤X<35 ≥35
Weather No Wx Reported VCTS,-TS,-FZRA TS,FZRA +TS,+FZRA


Page loaded:  14:34 UTC  |   07:34 AM Pacific  |   08:34 AM Mountain  |   09:34 AM Central  |   10:34 AM Eastern

 

ADVISORIES

FORECASTS

FORECASTS

OBSERVATIONS

USER TOOLS

ABOUT US